Terminal Aerodrome Forecast
Issued by NWS Bismarck, ND

Home | Current Version | Previous Version | Text Only | Print | Product List | Glossary On
Versions: 1 2 3 4 5 6 7 8 9 10 11 12 13 14 15 16 17 18 19 20 21 22 23 24 25 26 27 28 29 30 31
775
FTUS43 KBIS 041735
TAFBIS
TAF
KBIS 041735Z 0418/0518 26008KT P6SM SKC
     FM042300 19005KT P6SM SCT250
     FM050400 VRB03KT P6SM BKN110
     FM051100 18005KT P6SM VCSH OVC020
     FM051400 30013G23KT P6SM OVC015=

USA.gov is the U.S. government's official web portal to all federal, state and local government web resources and services.